sensor_id;sensor_type;location;lat;lon;timestamp;pressure;altitude;pressure_sealevel;temperature;humidity
65614;BME280;52283;49.292;10.572;2023-06-22T00:02:00;96627.00;;;19.36;100.00
65614;BME280;52283;49.292;10.572;2023-06-22T00:04:26;96626.22;;;19.28;100.00
65614;BME280;52283;49.292;10.572;2023-06-22T00:06:53;96621.91;;;19.35;100.00
65614;BME280;52283;49.292;10.572;2023-06-22T00:09:19;96637.56;;;19.28;100.00
65614;BME280;52283;49.292;10.572;2023-06-22T00:11:46;96647.66;;;19.44;100.00
65614;BME280;52283;49.292;10.572;2023-06-22T00:14:14;96651.00;;;19.35;100.00
65614;BME280;52283;49.292;10.572;2023-06-22T00:16:40;96661.72;;;19.22;100.00
65614;BME280;52283;49.292;10.572;2023-06-22T00:19:08;96672.00;;;19.11;100.00
65614;BME280;52283;49.292;10.572;2023-06-22T00:21:37;96675.94;;;18.59;100.00
65614;BME280;52283;49.292;10.572;2023-06-22T00:24:04;96671.03;;;18.39;100.00
65614;BME280;52283;49.292;10.572;2023-06-22T00:26:31;96680.63;;;18.36;100.00
65614;BME280;52283;49.292;10.572;2023-06-22T00:28:57;96680.63;;;18.36;100.00
65614;BME280;52283;49.292;10.572;2023-06-22T00:31:25;96677.59;;;18.34;100.00
65614;BME280;52283;49.292;10.572;2023-06-22T00:33:52;96665.28;;;18.31;100.00
65614;BME280;52283;49.292;10.572;2023-06-22T00:36:18;96666.53;;;18.43;100.00
65614;BME280;52283;49.292;10.572;2023-06-22T00:38:45;96664.13;;;18.47;100.00
65614;BME280;52283;49.292;10.572;2023-06-22T00:41:11;96664.25;;;18.42;100.00
65614;BME280;52283;49.292;10.572;2023-06-22T00:43:38;96668.19;;;18.59;100.00
65614;BME280;52283;49.292;10.572;2023-06-22T00:46:07;96664.41;;;18.57;100.00
65614;BME280;52283;49.292;10.572;2023-06-22T00:48:35;96655.09;;;18.70;100.00
65614;BME280;52283;49.292;10.572;2023-06-22T00:51:02;96650.75;;;18.69;100.00
65614;BME280;52283;49.292;10.572;2023-06-22T00:53:29;96639.56;;;18.63;100.00
65614;BME280;52283;49.292;10.572;2023-06-22T00:55:58;96615.03;;;17.82;100.00
65614;BME280;52283;49.292;10.572;2023-06-22T00:58:25;96598.53;;;17.60;100.00
65614;BME280;52283;49.292;10.572;2023-06-22T01:00:51;96587.53;;;18.24;100.00
65614;BME280;52283;49.292;10.572;2023-06-22T01:03:18;96586.41;;;18.27;100.00
65614;BME280;52283;49.292;10.572;2023-06-22T01:05:47;96568.63;;;17.64;100.00
65614;BME280;52283;49.292;10.572;2023-06-22T01:08:30;96552.56;;;17.59;100.00
65614;BME280;52283;49.292;10.572;2023-06-22T01:11:01;96557.53;;;17.66;100.00
65614;BME280;52283;49.292;10.572;2023-06-22T01:13:45;96559.94;;;17.76;100.00
65614;BME280;52283;49.292;10.572;2023-06-22T01:16:18;96560.63;;;17.89;100.00
65614;BME280;52283;49.292;10.572;2023-06-22T01:18:46;96564.81;;;17.75;100.00
65614;BME280;52283;49.292;10.572;2023-06-22T01:21:19;96557.00;;;17.68;100.00
65614;BME280;52283;49.292;10.572;2023-06-22T01:23:56;96555.19;;;17.57;100.00
65614;BME280;52283;49.292;10.572;2023-06-22T01:26:36;96557.59;;;18.08;100.00
65614;BME280;52283;49.292;10.572;2023-06-22T01:29:08;96561.31;;;18.24;100.00
65614;BME280;52283;49.292;10.572;2023-06-22T01:31:39;96566.91;;;18.37;100.00
65614;BME280;52283;49.292;10.572;2023-06-22T01:34:08;96577.50;;;18.44;100.00
65614;BME280;52283;49.292;10.572;2023-06-22T01:36:35;96585.94;;;18.57;100.00
65614;BME280;52283;49.292;10.572;2023-06-22T01:39:03;96580.25;;;18.57;100.00
65614;BME280;52283;49.292;10.572;2023-06-22T01:41:34;96590.50;;;18.40;100.00
65614;BME280;52283;49.292;10.572;2023-06-22T01:44:03;96583.78;;;18.50;100.00
65614;BME280;52283;49.292;10.572;2023-06-22T01:46:33;96581.88;;;18.24;100.00
65614;BME280;52283;49.292;10.572;2023-06-22T01:49:01;96575.81;;;18.20;100.00
65614;BME280;52283;49.292;10.572;2023-06-22T01:51:28;96586.06;;;18.31;100.00
65614;BME280;52283;49.292;10.572;2023-06-22T01:53:54;96575.44;;;17.82;100.00
65614;BME280;52283;49.292;10.572;2023-06-22T01:56:21;96567.19;;;18.05;100.00
65614;BME280;52283;49.292;10.572;2023-06-22T01:58:51;96589.91;;;18.13;100.00
65614;BME280;52283;49.292;10.572;2023-06-22T02:01:24;96599.47;;;18.10;100.00
65614;BME280;52283;49.292;10.572;2023-06-22T02:03:59;96591.22;;;18.12;100.00
65614;BME280;52283;49.292;10.572;2023-06-22T02:06:31;96593.13;;;18.38;100.00
65614;BME280;52283;49.292;10.572;2023-06-22T02:09:06;96594.69;;;18.46;100.00
65614;BME280;52283;49.292;10.572;2023-06-22T02:11:35;96602.78;;;18.21;100.00
65614;BME280;52283;49.292;10.572;2023-06-22T02:14:03;96593.91;;;17.83;100.00
65614;BME280;52283;49.292;10.572;2023-06-22T02:16:31;96591.06;;;17.96;100.00
65614;BME280;52283;49.292;10.572;2023-06-22T02:19:01;96624.09;;;18.02;100.00
65614;BME280;52283;49.292;10.572;2023-06-22T02:21:28;96652.66;;;17.77;100.00
65614;BME280;52283;49.292;10.572;2023-06-22T02:23:55;96665.09;;;17.08;100.00
65614;BME280;52283;49.292;10.572;2023-06-22T02:26:22;96674.19;;;16.88;100.00
65614;BME280;52283;49.292;10.572;2023-06-22T02:28:50;96687.22;;;16.59;100.00
65614;BME280;52283;49.292;10.572;2023-06-22T02:31:16;96672.44;;;16.71;100.00
65614;BME280;52283;49.292;10.572;2023-06-22T02:33:43;96673.44;;;17.00;100.00
65614;BME280;52283;49.292;10.572;2023-06-22T02:36:11;96691.13;;;16.88;100.00
65614;BME280;52283;49.292;10.572;2023-06-22T02:38:38;96692.84;;;16.77;100.00
65614;BME280;52283;49.292;10.572;2023-06-22T02:41:05;96687.78;;;16.89;100.00
65614;BME280;52283;49.292;10.572;2023-06-22T02:43:31;96693.72;;;16.86;100.00
65614;BME280;52283;49.292;10.572;2023-06-22T02:45:58;96690.41;;;17.14;100.00
65614;BME280;52283;49.292;10.572;2023-06-22T02:48:24;96680.94;;;16.98;100.00
65614;BME280;52283;49.292;10.572;2023-06-22T02:50:51;96676.72;;;17.31;100.00
65614;BME280;52283;49.292;10.572;2023-06-22T02:53:19;96687.78;;;17.42;100.00
65614;BME280;52283;49.292;10.572;2023-06-22T02:55:46;96683.00;;;17.37;100.00
65614;BME280;52283;49.292;10.572;2023-06-22T02:58:12;96687.03;;;17.28;100.00
65614;BME280;52283;49.292;10.572;2023-06-22T03:00:38;96679.44;;;17.10;100.00
65614;BME280;52283;49.292;10.572;2023-06-22T03:03:05;96681.81;;;17.19;100.00
65614;BME280;52283;49.292;10.572;2023-06-22T03:05:31;96665.28;;;17.23;100.00
65614;BME280;52283;49.292;10.572;2023-06-22T03:08:00;96664.97;;;17.14;100.00
65614;BME280;52283;49.292;10.572;2023-06-22T03:10:28;96655.72;;;17.40;100.00
65614;BME280;52283;49.292;10.572;2023-06-22T03:12:54;96660.84;;;17.28;100.00
65614;BME280;52283;49.292;10.572;2023-06-22T03:15:21;96647.94;;;16.93;100.00
65614;BME280;52283;49.292;10.572;2023-06-22T03:17:47;96632.41;;;16.99;100.00
65614;BME280;52283;49.292;10.572;2023-06-22T03:20:14;96622.72;;;17.34;100.00
65614;BME280;52283;49.292;10.572;2023-06-22T03:22:41;96624.31;;;17.56;100.00
65614;BME280;52283;49.292;10.572;2023-06-22T03:25:09;96636.13;;;17.81;100.00
65614;BME280;52283;49.292;10.572;2023-06-22T03:27:39;96631.75;;;17.93;100.00
65614;BME280;52283;49.292;10.572;2023-06-22T03:30:07;96627.56;;;17.74;100.00
65614;BME280;52283;49.292;10.572;2023-06-22T03:32:34;96621.00;;;18.13;100.00
65614;BME280;52283;49.292;10.572;2023-06-22T03:35:01;96630.72;;;18.25;100.00
65614;BME280;52283;49.292;10.572;2023-06-22T03:37:28;96630.16;;;18.26;100.00
65614;BME280;52283;49.292;10.572;2023-06-22T03:39:55;96614.25;;;17.82;100.00
65614;BME280;52283;49.292;10.572;2023-06-22T03:42:21;96586.34;;;17.65;100.00
65614;BME280;52283;49.292;10.572;2023-06-22T03:44:49;96592.22;;;18.01;100.00
65614;BME280;52283;49.292;10.572;2023-06-22T03:47:16;96601.88;;;18.06;100.00
65614;BME280;52283;49.292;10.572;2023-06-22T03:49:43;96596.72;;;17.96;100.00
65614;BME280;52283;49.292;10.572;2023-06-22T03:52:09;96586.25;;;17.71;100.00
65614;BME280;52283;49.292;10.572;2023-06-22T03:54:37;96558.09;;;17.65;100.00
65614;BME280;52283;49.292;10.572;2023-06-22T03:57:04;96553.13;;;17.58;100.00
65614;BME280;52283;49.292;10.572;2023-06-22T03:59:33;96565.25;;;17.66;100.00
65614;BME280;52283;49.292;10.572;2023-06-22T04:02:02;96581.88;;;18.04;100.00
65614;BME280;52283;49.292;10.572;2023-06-22T04:04:28;96580.47;;;17.76;100.00
65614;BME280;52283;49.292;10.572;2023-06-22T04:06:55;96560.00;;;17.83;100.00
65614;BME280;52283;49.292;10.572;2023-06-22T04:09:21;96557.53;;;17.80;100.00
65614;BME280;52283;49.292;10.572;2023-06-22T04:11:48;96558.69;;;17.84;100.00
65614;BME280;52283;49.292;10.572;2023-06-22T04:14:14;96562.63;;;17.81;100.00
65614;BME280;52283;49.292;10.572;2023-06-22T04:16:40;96547.53;;;17.79;100.00
65614;BME280;52283;49.292;10.572;2023-06-22T04:19:08;96566.44;;;18.05;100.00
65614;BME280;52283;49.292;10.572;2023-06-22T04:21:39;96589.19;;;18.20;100.00
65614;BME280;52283;49.292;10.572;2023-06-22T04:24:06;96572.97;;;18.00;100.00
65614;BME280;52283;49.292;10.572;2023-06-22T04:26:33;96548.50;;;17.81;100.00
65614;BME280;52283;49.292;10.572;2023-06-22T04:29:02;96526.06;;;18.04;100.00
65614;BME280;52283;49.292;10.572;2023-06-22T04:31:30;96548.41;;;18.36;100.00
65614;BME280;52283;49.292;10.572;2023-06-22T04:34:02;96580.97;;;18.29;100.00
65614;BME280;52283;49.292;10.572;2023-06-22T04:36:34;96593.94;;;18.25;100.00
65614;BME280;52283;49.292;10.572;2023-06-22T04:39:02;96591.88;;;18.25;100.00
65614;BME280;52283;49.292;10.572;2023-06-22T04:41:29;96535.31;;;18.05;100.00
65614;BME280;52283;49.292;10.572;2023-06-22T04:44:08;96508.88;;;18.51;100.00
65614;BME280;52283;49.292;10.572;2023-06-22T04:46:34;96538.91;;;18.75;100.00
65614;BME280;52283;49.292;10.572;2023-06-22T04:49:04;96590.19;;;18.51;100.00
65614;BME280;52283;49.292;10.572;2023-06-22T04:51:31;96610.63;;;18.57;100.00
65614;BME280;52283;49.292;10.572;2023-06-22T04:53:59;96585.25;;;18.65;100.00
65614;BME280;52283;49.292;10.572;2023-06-22T04:56:26;96529.88;;;18.56;100.00
65614;BME280;52283;49.292;10.572;2023-06-22T04:58:53;96523.56;;;18.99;100.00
65614;BME280;52283;49.292;10.572;2023-06-22T05:01:22;96549.66;;;19.13;100.00
65614;BME280;52283;49.292;10.572;2023-06-22T05:03:49;96592.34;;;19.15;100.00
65614;BME280;52283;49.292;10.572;2023-06-22T05:06:15;96603.72;;;19.23;100.00
65614;BME280;52283;49.292;10.572;2023-06-22T05:08:43;96603.84;;;19.53;100.00
65614;BME280;52283;49.292;10.572;2023-06-22T05:11:11;96568.59;;;19.18;100.00
65614;BME280;52283;49.292;10.572;2023-06-22T05:13:37;96552.75;;;19.30;100.00
65614;BME280;52283;49.292;10.572;2023-06-22T05:16:04;96559.91;;;19.67;100.00
65614;BME280;52283;49.292;10.572;2023-06-22T05:18:31;96579.84;;;20.05;100.00
65614;BME280;52283;49.292;10.572;2023-06-22T05:20:58;96588.94;;;20.04;100.00
65614;BME280;52283;49.292;10.572;2023-06-22T05:23:24;96590.81;;;20.17;100.00
65614;BME280;52283;49.292;10.572;2023-06-22T05:25:51;96591.78;;;20.34;100.00
65614;BME280;52283;49.292;10.572;2023-06-22T05:28:20;96568.28;;;19.96;100.00
65614;BME280;52283;49.292;10.572;2023-06-22T05:30:48;96553.91;;;19.94;100.00
65614;BME280;52283;49.292;10.572;2023-06-22T05:33:14;96562.84;;;20.21;100.00
65614;BME280;52283;49.292;10.572;2023-06-22T05:35:41;96550.72;;;20.35;100.00
65614;BME280;52283;49.292;10.572;2023-06-22T05:38:07;96552.25;;;20.36;100.00
65614;BME280;52283;49.292;10.572;2023-06-22T05:40:34;96548.31;;;20.47;100.00
65614;BME280;52283;49.292;10.572;2023-06-22T05:43:00;96552.28;;;20.52;100.00
65614;BME280;52283;49.292;10.572;2023-06-22T05:45:28;96553.75;;;20.91;100.00
65614;BME280;52283;49.292;10.572;2023-06-22T05:47:54;96566.56;;;21.15;100.00
65614;BME280;52283;49.292;10.572;2023-06-22T05:50:21;96558.63;;;21.06;100.00
65614;BME280;52283;49.292;10.572;2023-06-22T05:52:47;96569.97;;;21.13;100.00
65614;BME280;52283;49.292;10.572;2023-06-22T05:55:14;96574.31;;;21.29;100.00
65614;BME280;52283;49.292;10.572;2023-06-22T05:57:43;96576.19;;;21.19;100.00
65614;BME280;52283;49.292;10.572;2023-06-22T06:00:11;96576.25;;;20.96;100.00
65614;BME280;52283;49.292;10.572;2023-06-22T06:02:40;96554.91;;;21.43;100.00
65614;BME280;52283;49.292;10.572;2023-06-22T06:05:09;96550.59;;;21.75;100.00
65614;BME280;52283;49.292;10.572;2023-06-22T06:07:35;96556.13;;;21.65;100.00
65614;BME280;52283;49.292;10.572;2023-06-22T06:10:02;96563.06;;;21.87;100.00
65614;BME280;52283;49.292;10.572;2023-06-22T06:12:29;96572.25;;;21.70;100.00
65614;BME280;52283;49.292;10.572;2023-06-22T06:14:56;96572.25;;;21.70;100.00
65614;BME280;52283;49.292;10.572;2023-06-22T06:17:22;96566.84;;;21.49;100.00
65614;BME280;52283;49.292;10.572;2023-06-22T06:19:50;96561.91;;;21.50;100.00
65614;BME280;52283;49.292;10.572;2023-06-22T06:22:17;96549.19;;;21.83;100.00
65614;BME280;52283;49.292;10.572;2023-06-22T06:24:46;96543.31;;;21.89;100.00
65614;BME280;52283;49.292;10.572;2023-06-22T06:27:12;96549.84;;;22.07;100.00
65614;BME280;52283;49.292;10.572;2023-06-22T06:29:39;96543.78;;;22.10;100.00
65614;BME280;52283;49.292;10.572;2023-06-22T06:32:06;96543.75;;;22.35;100.00
65614;BME280;52283;49.292;10.572;2023-06-22T06:34:33;96549.34;;;22.50;100.00
65614;BME280;52283;49.292;10.572;2023-06-22T06:37:01;96547.38;;;22.03;100.00
65614;BME280;52283;49.292;10.572;2023-06-22T06:39:28;96542.50;;;21.96;100.00
65614;BME280;52283;49.292;10.572;2023-06-22T06:41:54;96537.44;;;22.19;100.00
65614;BME280;52283;49.292;10.572;2023-06-22T06:44:21;96530.88;;;22.34;100.00
65614;BME280;52283;49.292;10.572;2023-06-22T06:46:47;96533.19;;;22.28;100.00
65614;BME280;52283;49.292;10.572;2023-06-22T06:49:14;96529.84;;;22.64;100.00
65614;BME280;52283;49.292;10.572;2023-06-22T06:51:40;96538.72;;;22.68;100.00
65614;BME280;52283;49.292;10.572;2023-06-22T06:54:08;96541.50;;;22.76;100.00
65614;BME280;52283;49.292;10.572;2023-06-22T06:56:35;96540.78;;;23.10;100.00
65614;BME280;52283;49.292;10.572;2023-06-22T06:59:01;96537.38;;;23.11;100.00
65614;BME280;52283;49.292;10.572;2023-06-22T07:01:28;96535.41;;;23.31;100.00
65614;BME280;52283;49.292;10.572;2023-06-22T07:03:58;96539.38;;;23.80;100.00
65614;BME280;52283;49.292;10.572;2023-06-22T07:06:25;96526.78;;;23.83;100.00
65614;BME280;52283;49.292;10.572;2023-06-22T07:08:54;96532.16;;;23.35;100.00
65614;BME280;52283;49.292;10.572;2023-06-22T07:11:22;96534.88;;;23.77;100.00
65614;BME280;52283;49.292;10.572;2023-06-22T07:13:48;96540.41;;;23.75;100.00
65614;BME280;52283;49.292;10.572;2023-06-22T07:16:15;96529.25;;;23.96;100.00
65614;BME280;52283;49.292;10.572;2023-06-22T07:18:41;96530.19;;;24.09;100.00
65614;BME280;52283;49.292;10.572;2023-06-22T07:21:08;96527.44;;;24.28;100.00
65614;BME280;52283;49.292;10.572;2023-06-22T07:23:34;96529.22;;;24.23;100.00
65614;BME280;52283;49.292;10.572;2023-06-22T07:26:01;96524.56;;;24.18;100.00
65614;BME280;52283;49.292;10.572;2023-06-22T07:28:29;96520.56;;;24.31;100.00
65614;BME280;52283;49.292;10.572;2023-06-22T07:30:56;96518.44;;;24.31;100.00
65614;BME280;52283;49.292;10.572;2023-06-22T07:33:22;96505.31;;;24.65;100.00
65614;BME280;52283;49.292;10.572;2023-06-22T07:35:49;96501.72;;;24.74;100.00
65614;BME280;52283;49.292;10.572;2023-06-22T07:38:17;96496.03;;;24.93;100.00
65614;BME280;52283;49.292;10.572;2023-06-22T07:40:43;96496.91;;;24.67;100.00
65614;BME280;52283;49.292;10.572;2023-06-22T07:43:10;96490.00;;;25.38;100.00
65614;BME280;52283;49.292;10.572;2023-06-22T07:45:39;96490.75;;;25.67;96.70
65614;BME280;52283;49.292;10.572;2023-06-22T07:48:07;96481.41;;;25.67;94.40
65614;BME280;52283;49.292;10.572;2023-06-22T07:50:33;96477.72;;;26.57;90.15
65614;BME280;52283;49.292;10.572;2023-06-22T07:53:00;96476.84;;;26.55;88.39
65614;BME280;52283;49.292;10.572;2023-06-22T07:55:26;96481.47;;;25.98;91.44
65614;BME280;52283;49.292;10.572;2023-06-22T07:57:53;96491.09;;;26.64;85.74
65614;BME280;52283;49.292;10.572;2023-06-22T08:00:19;96485.84;;;26.61;84.69
65614;BME280;52283;49.292;10.572;2023-06-22T08:02:47;96468.44;;;27.66;75.66
65614;BME280;52283;49.292;10.572;2023-06-22T08:05:14;96489.06;;;26.55;78.90
65614;BME280;52283;49.292;10.572;2023-06-22T08:07:42;96502.41;;;26.41;85.04
65614;BME280;52283;49.292;10.572;2023-06-22T08:10:10;96490.00;;;27.00;81.04
65614;BME280;52283;49.292;10.572;2023-06-22T08:12:37;96481.72;;;27.16;77.98
65614;BME280;52283;49.292;10.572;2023-06-22T08:15:05;96473.00;;;28.04;72.67
65614;BME280;52283;49.292;10.572;2023-06-22T08:17:32;96478.44;;;27.88;74.07
65614;BME280;52283;49.292;10.572;2023-06-22T08:20:00;96482.38;;;28.28;71.70
65614;BME280;52283;49.292;10.572;2023-06-22T08:22:30;96481.44;;;27.90;72.17
65614;BME280;52283;49.292;10.572;2023-06-22T08:24:58;96490.72;;;26.80;75.66
65614;BME280;52283;49.292;10.572;2023-06-22T08:27:25;96485.97;;;27.27;74.78
65614;BME280;52283;49.292;10.572;2023-06-22T08:29:53;96482.97;;;27.91;73.22
65614;BME280;52283;49.292;10.572;2023-06-22T08:32:23;96471.59;;;28.87;67.90
65614;BME280;52283;49.292;10.572;2023-06-22T08:34:50;96474.34;;;27.46;71.86
65614;BME280;52283;49.292;10.572;2023-06-22T08:37:18;96470.72;;;28.72;68.82
65614;BME280;52283;49.292;10.572;2023-06-22T08:39:44;96487.72;;;26.99;75.18
65614;BME280;52283;49.292;10.572;2023-06-22T08:42:11;96478.28;;;27.29;72.49
65614;BME280;52283;49.292;10.572;2023-06-22T08:44:38;96463.41;;;28.34;68.80
65614;BME280;52283;49.292;10.572;2023-06-22T08:47:04;96460.13;;;28.51;66.37
65614;BME280;52283;49.292;10.572;2023-06-22T08:49:31;96465.16;;;28.39;66.80
65614;BME280;52283;49.292;10.572;2023-06-22T08:51:57;96461.84;;;28.68;65.10
65614;BME280;52283;49.292;10.572;2023-06-22T08:54:25;96455.81;;;28.99;64.79
65614;BME280;52283;49.292;10.572;2023-06-22T08:56:51;96444.88;;;28.61;63.99
65614;BME280;52283;49.292;10.572;2023-06-22T08:59:18;96436.09;;;29.44;61.46
65614;BME280;52283;49.292;10.572;2023-06-22T09:01:44;96430.66;;;29.76;60.58
65614;BME280;52283;49.292;10.572;2023-06-22T09:04:14;96429.19;;;28.99;62.29
65614;BME280;52283;49.292;10.572;2023-06-22T09:06:40;96423.50;;;29.63;60.57
65614;BME280;52283;49.292;10.572;2023-06-22T09:09:10;96429.94;;;29.75;60.47
65614;BME280;52283;49.292;10.572;2023-06-22T09:11:38;96421.97;;;29.49;60.59
65614;BME280;52283;49.292;10.572;2023-06-22T09:14:04;96431.81;;;29.57;63.25
65614;BME280;52283;49.292;10.572;2023-06-22T09:16:31;96412.06;;;30.59;57.49
65614;BME280;52283;49.292;10.572;2023-06-22T09:18:58;96401.16;;;29.89;59.67
65614;BME280;52283;49.292;10.572;2023-06-22T09:21:25;96407.31;;;30.23;59.50
65614;BME280;52283;49.292;10.572;2023-06-22T09:23:51;96407.09;;;30.32;57.92
65614;BME280;52283;49.292;10.572;2023-06-22T09:26:18;96388.19;;;30.43;58.69
65614;BME280;52283;49.292;10.572;2023-06-22T09:28:46;96395.38;;;29.75;60.79
65614;BME280;52283;49.292;10.572;2023-06-22T09:31:12;96398.34;;;29.38;62.29
65614;BME280;52283;49.292;10.572;2023-06-22T09:33:40;96388.06;;;30.69;58.64
65614;BME280;52283;49.292;10.572;2023-06-22T09:36:07;96375.16;;;30.42;56.62
65614;BME280;52283;49.292;10.572;2023-06-22T09:38:34;96374.66;;;30.89;56.34
65614;BME280;52283;49.292;10.572;2023-06-22T09:41:01;96371.09;;;30.47;55.84
65614;BME280;52283;49.292;10.572;2023-06-22T09:43:28;96379.34;;;30.12;56.49
65614;BME280;52283;49.292;10.572;2023-06-22T09:45:56;96372.72;;;30.64;56.24
65614;BME280;52283;49.292;10.572;2023-06-22T09:48:22;96369.53;;;31.62;53.43
65614;BME280;52283;49.292;10.572;2023-06-22T09:50:49;96365.31;;;31.34;54.15
65614;BME280;52283;49.292;10.572;2023-06-22T09:53:15;96364.47;;;31.31;53.82
65614;BME280;52283;49.292;10.572;2023-06-22T09:55:42;96375.94;;;31.90;51.47
65614;BME280;52283;49.292;10.572;2023-06-22T09:58:08;96387.41;;;31.13;50.98
65614;BME280;52283;49.292;10.572;2023-06-22T10:00:35;96407.41;;;30.11;55.65
65614;BME280;52283;49.292;10.572;2023-06-22T10:03:03;96396.44;;;30.92;53.15
65614;BME280;52283;49.292;10.572;2023-06-22T10:05:29;96398.75;;;31.09;50.06
65614;BME280;52283;49.292;10.572;2023-06-22T10:07:57;96414.53;;;30.51;54.17
65614;BME280;52283;49.292;10.572;2023-06-22T10:10:23;96401.75;;;31.41;52.44
65614;BME280;52283;49.292;10.572;2023-06-22T10:12:55;96402.91;;;31.49;50.87
65614;BME280;52283;49.292;10.572;2023-06-22T10:15:22;96402.22;;;31.35;50.70
65614;BME280;52283;49.292;10.572;2023-06-22T10:17:48;96400.78;;;32.44;48.61
65614;BME280;52283;49.292;10.572;2023-06-22T10:20:16;96406.38;;;31.32;49.17
65614;BME280;52283;49.292;10.572;2023-06-22T10:22:44;96410.03;;;30.89;50.26
65614;BME280;52283;49.292;10.572;2023-06-22T10:25:12;96398.84;;;32.18;46.59
65614;BME280;52283;49.292;10.572;2023-06-22T10:27:39;96404.38;;;30.91;48.40
65614;BME280;52283;49.292;10.572;2023-06-22T10:30:07;96416.06;;;31.09;48.86
65614;BME280;52283;49.292;10.572;2023-06-22T10:32:33;96406.22;;;30.85;48.42
65614;BME280;52283;49.292;10.572;2023-06-22T10:35:00;96393.78;;;31.55;46.79
65614;BME280;52283;49.292;10.572;2023-06-22T10:37:28;96393.31;;;30.45;48.96
65614;BME280;52283;49.292;10.572;2023-06-22T10:39:54;96397.78;;;31.64;47.73
65614;BME280;52283;49.292;10.572;2023-06-22T10:42:20;96386.78;;;31.60;47.30
65614;BME280;52283;49.292;10.572;2023-06-22T10:44:47;96372.56;;;32.11;46.04
65614;BME280;52283;49.292;10.572;2023-06-22T10:47:14;96358.59;;;32.55;45.92
65614;BME280;52283;49.292;10.572;2023-06-22T10:49:41;96353.41;;;31.41;46.76
65614;BME280;52283;49.292;10.572;2023-06-22T10:52:08;96349.63;;;32.15;46.97
65614;BME280;52283;49.292;10.572;2023-06-22T10:54:37;96338.31;;;33.24;43.84
65614;BME280;52283;49.292;10.572;2023-06-22T10:57:04;96329.56;;;33.22;44.02
65614;BME280;52283;49.292;10.572;2023-06-22T10:59:30;96330.81;;;32.48;45.65
65614;BME280;52283;49.292;10.572;2023-06-22T11:01:57;96339.19;;;32.91;44.38
65614;BME280;52283;49.292;10.572;2023-06-22T11:04:23;96333.13;;;33.21;43.23
65614;BME280;52283;49.292;10.572;2023-06-22T11:06:51;96348.66;;;32.42;44.25
65614;BME280;52283;49.292;10.572;2023-06-22T11:09:17;96345.56;;;30.99;46.36
65614;BME280;52283;49.292;10.572;2023-06-22T11:11:47;96342.84;;;31.93;45.02
65614;BME280;52283;49.292;10.572;2023-06-22T11:14:14;96344.13;;;31.13;47.75
65614;BME280;52283;49.292;10.572;2023-06-22T11:16:40;96344.53;;;32.48;45.86
65614;BME280;52283;49.292;10.572;2023-06-22T11:19:07;96342.28;;;32.28;45.58
65614;BME280;52283;49.292;10.572;2023-06-22T11:21:34;96333.94;;;32.70;43.58
65614;BME280;52283;49.292;10.572;2023-06-22T11:24:00;96335.38;;;32.53;44.28
65614;BME280;52283;49.292;10.572;2023-06-22T11:26:27;96323.19;;;33.26;44.15
65614;BME280;52283;49.292;10.572;2023-06-22T11:28:55;96319.41;;;32.86;43.78
65614;BME280;52283;49.292;10.572;2023-06-22T11:31:21;96318.72;;;32.69;43.64
65614;BME280;52283;49.292;10.572;2023-06-22T11:33:48;96302.03;;;33.21;42.30
65614;BME280;52283;49.292;10.572;2023-06-22T11:36:14;96312.19;;;32.87;43.03
65614;BME280;52283;49.292;10.572;2023-06-22T11:38:41;96315.56;;;32.63;44.79
65614;BME280;52283;49.292;10.572;2023-06-22T11:41:08;96301.19;;;33.74;42.60
65614;BME280;52283;49.292;10.572;2023-06-22T11:43:36;96297.22;;;33.10;42.37
65614;BME280;52283;49.292;10.572;2023-06-22T11:46:04;96306.91;;;32.14;43.23
65614;BME280;52283;49.292;10.572;2023-06-22T11:48:31;96292.00;;;32.53;43.01
65614;BME280;52283;49.292;10.572;2023-06-22T11:50:58;96274.84;;;33.48;41.93
65614;BME280;52283;49.292;10.572;2023-06-22T11:53:26;96267.00;;;33.90;41.03
65614;BME280;52283;49.292;10.572;2023-06-22T11:55:52;96264.09;;;32.95;41.49
65614;BME280;52283;49.292;10.572;2023-06-22T11:58:20;96264.88;;;33.33;40.60
65614;BME280;52283;49.292;10.572;2023-06-22T12:00:47;96259.28;;;34.17;39.58
65614;BME280;52283;49.292;10.572;2023-06-22T12:03:15;96259.56;;;33.65;40.48
65614;BME280;52283;49.292;10.572;2023-06-22T12:05:42;96257.91;;;34.40;38.66
65614;BME280;52283;49.292;10.572;2023-06-22T12:08:08;96267.34;;;33.23;40.89
65614;BME280;52283;49.292;10.572;2023-06-22T12:10:35;96275.03;;;32.45;42.32
65614;BME280;52283;49.292;10.572;2023-06-22T12:13:01;96257.38;;;32.73;42.45
65614;BME280;52283;49.292;10.572;2023-06-22T12:15:28;96254.56;;;32.75;42.20
65614;BME280;52283;49.292;10.572;2023-06-22T12:17:54;96245.81;;;32.73;42.47
65614;BME280;52283;49.292;10.572;2023-06-22T12:20:22;96246.78;;;32.62;42.01
65614;BME280;52283;49.292;10.572;2023-06-22T12:22:48;96240.66;;;32.36;42.69
65614;BME280;52283;49.292;10.572;2023-06-22T12:25:16;96237.53;;;33.96;40.29
65614;BME280;52283;49.292;10.572;2023-06-22T12:27:43;96236.38;;;34.47;39.25
65614;BME280;52283;49.292;10.572;2023-06-22T12:30:10;96239.22;;;34.89;37.75
65614;BME280;52283;49.292;10.572;2023-06-22T12:32:36;96230.88;;;33.93;38.46
65614;BME280;52283;49.292;10.572;2023-06-22T12:35:03;96232.47;;;33.77;38.45
65614;BME280;52283;49.292;10.572;2023-06-22T12:37:31;96233.72;;;33.32;39.89
65614;BME280;52283;49.292;10.572;2023-06-22T12:39:58;96234.25;;;33.28;40.03
65614;BME280;52283;49.292;10.572;2023-06-22T12:42:25;96233.34;;;34.01;39.47
65614;BME280;52283;49.292;10.572;2023-06-22T12:44:53;96228.63;;;34.12;38.66